Time;durP1;ratioP1;P1;durP2;ratioP2;P2;SDS_P1;SDS_P2;PMS_P1;PMS_P2;Temp;Humidity;BMP_temperature;BMP_pressure;BME280_temperature;BME280_humidity;BME280_pressure;Samples;Min_cycle;Max_cycle;Signal;HPM_P1;HPM_P2
2023/11/28 00:00:13;;;;;;;10.23;8.40;;;4.10;99.90;;;;;;5078564;28;20181;-87
2023/11/28 00:02:39;;;;;;;8.37;7.00;;;4.20;99.90;;;;;;5077405;28;20644;-84
2023/11/28 00:05:05;;;;;;;10.70;8.33;;;4.20;99.90;;;;;;5073753;28;20262;-86
2023/11/28 00:07:33;;;;;;;9.07;7.50;;;4.20;99.90;;;;;;5074353;28;20168;-85
2023/11/28 00:10:00;;;;;;;8.47;6.07;;;4.10;99.90;;;;;;5074818;28;20676;-86
2023/11/28 00:12:26;;;;;;;8.93;7.63;;;4.20;99.90;;;;;;5075078;28;20176;-86
2023/11/28 00:14:52;;;;;;;8.40;6.40;;;4.30;99.90;;;;;;5085691;28;20192;-86
2023/11/28 00:17:19;;;;;;;9.63;7.17;;;4.10;99.90;;;;;;5073959;28;20261;-86
2023/11/28 00:19:45;;;;;;;9.97;7.03;;;4.20;99.90;;;;;;5075517;28;20188;-84
2023/11/28 00:22:10;;;;;;;9.03;6.70;;;4.10;99.90;;;;;;5076483;28;20191;-86
2023/11/28 00:24:37;;;;;;;11.17;8.57;;;4.10;99.90;;;;;;5076194;28;20214;-86
2023/11/28 00:27:06;;;;;;;8.67;6.93;;;4.20;99.90;;;;;;5079077;28;20583;-86
2023/11/28 00:29:32;;;;;;;8.20;6.13;;;4.10;99.90;;;;;;5075945;28;20225;-84
2023/11/28 00:31:58;;;;;;;6.77;5.67;;;4.20;99.90;;;;;;5074952;28;20168;-85
2023/11/28 00:34:24;;;;;;;7.70;5.47;;;4.10;99.90;;;;;;5073205;28;20624;-85
2023/11/28 00:36:50;;;;;;;10.10;7.13;;;4.10;99.90;;;;;;5074205;28;20535;-86
2023/11/28 00:39:16;;;;;;;10.17;8.00;;;4.20;99.90;;;;;;5073488;28;20179;-85
2023/11/28 00:41:48;;;;;;;9.50;7.23;;;4.10;99.90;;;;;;5074636;28;20246;-85
2023/11/28 00:44:14;;;;;;;10.00;7.97;;;4.20;99.90;;;;;;5072602;28;20203;-87
2023/11/28 00:46:42;;;;;;;9.50;7.17;;;4.20;99.90;;;;;;5072940;28;20180;-85
2023/11/28 00:49:11;;;;;;;10.80;7.60;;;4.20;99.90;;;;;;5072707;28;20222;-83
2023/11/28 00:51:36;;;;;;;7.57;5.67;;;4.20;99.90;;;;;;5072503;28;20184;-84
2023/11/28 00:54:08;;;;;;;10.07;7.87;;;4.40;99.90;;;;;;5072205;28;20175;-83
2023/11/28 00:56:34;;;;;;;10.33;8.57;;;4.20;99.90;;;;;;5073403;28;20511;-82
2023/11/28 00:59:00;;;;;;;8.87;7.00;;;4.40;99.90;;;;;;5072501;28;20192;-84
2023/11/28 01:01:25;;;;;;;9.67;8.10;;;4.30;99.90;;;;;;5073456;28;20180;-82
2023/11/28 01:03:51;;;;;;;9.77;7.23;;;4.30;99.90;;;;;;5074449;28;20180;-85
2023/11/28 01:06:17;;;;;;;9.43;7.97;;;4.30;99.90;;;;;;5073475;28;20578;-83
2023/11/28 01:08:42;;;;;;;10.53;7.57;;;4.50;99.90;;;;;;5071807;28;20176;-86
2023/11/28 01:11:08;;;;;;;9.83;7.27;;;4.30;99.90;;;;;;5072548;28;20656;-86
2023/11/28 01:13:34;;;;;;;9.20;8.20;;;4.40;99.90;;;;;;5074492;28;20523;-86
2023/11/28 01:16:00;;;;;;;10.30;7.03;;;4.40;99.90;;;;;;5076227;28;20176;-86
2023/11/28 01:18:25;;;;;;;9.97;7.33;;;4.40;99.90;;;;;;5074030;28;20169;-85
2023/11/28 01:20:51;;;;;;;8.47;7.07;;;4.50;99.90;;;;;;5073812;28;20192;-86
2023/11/28 01:23:20;;;;;;;8.73;7.70;;;4.40;99.90;;;;;;5079553;28;20274;-87
2023/11/28 01:25:46;;;;;;;9.47;6.87;;;4.50;99.90;;;;;;5083571;28;20207;-86
2023/11/28 01:28:12;;;;;;;9.17;7.83;;;4.40;99.90;;;;;;5072040;28;20176;-85
2023/11/28 01:30:39;;;;;;;9.40;7.53;;;4.40;99.90;;;;;;5072669;28;20251;-85
2023/11/28 01:33:05;;;;;;;7.97;6.03;;;4.40;99.90;;;;;;5073517;28;20624;-83
2023/11/28 01:35:31;;;;;;;10.07;7.87;;;4.50;99.90;;;;;;5082067;28;20156;-83
2023/11/28 01:37:58;;;;;;;9.13;7.23;;;4.40;99.90;;;;;;5078792;28;20218;-85
2023/11/28 01:40:23;;;;;;;9.47;7.90;;;4.40;99.90;;;;;;5073242;28;20182;-85
2023/11/28 01:42:49;;;;;;;9.47;7.77;;;4.40;99.90;;;;;;5074313;28;20164;-85
2023/11/28 01:45:15;;;;;;;9.37;7.63;;;4.60;99.90;;;;;;5073605;28;20684;-85
2023/11/28 01:47:41;;;;;;;8.97;7.63;;;4.40;99.90;;;;;;5073107;28;20625;-86
2023/11/28 01:50:08;;;;;;;8.90;7.10;;;4.40;99.90;;;;;;5073557;28;20624;-86
2023/11/28 01:52:34;;;;;;;8.90;7.70;;;4.40;99.90;;;;;;5072261;28;20310;-85
2023/11/28 01:55:04;;;;;;;9.63;8.47;;;4.40;99.90;;;;;;5072151;28;20694;-86
2023/11/28 01:57:31;;;;;;;9.50;8.00;;;4.50;99.90;;;;;;5073490;28;20168;-87
2023/11/28 01:59:59;;;;;;;10.47;7.70;;;4.50;99.90;;;;;;5073770;28;20262;-87
2023/11/28 02:02:26;;;;;;;11.13;9.00;;;4.60;99.90;;;;;;5071282;28;20632;-88
2023/11/28 02:04:52;;;;;;;11.53;9.93;;;4.50;99.90;;;;;;5072068;28;20296;-87
2023/11/28 02:07:18;;;;;;;10.40;8.10;;;4.60;99.90;;;;;;5072035;28;20621;-87
2023/11/28 02:09:44;;;;;;;8.63;6.67;;;4.50;99.90;;;;;;5072165;28;20172;-84
2023/11/28 02:12:09;;;;;;;8.77;7.53;;;4.60;99.90;;;;;;5072413;28;20168;-86
2023/11/28 02:14:44;;;;;;;8.70;7.60;;;4.50;99.90;;;;;;5073046;28;20168;-85
2023/11/28 02:17:10;;;;;;;9.03;7.77;;;4.70;99.90;;;;;;5084563;28;20270;-87
2023/11/28 02:19:36;;;;;;;8.07;6.93;;;4.70;99.90;;;;;;5091984;28;20223;-85
2023/11/28 02:22:02;;;;;;;8.37;7.47;;;4.60;99.90;;;;;;5091433;28;20176;-85
2023/11/28 02:24:30;;;;;;;7.27;6.10;;;4.60;99.90;;;;;;5093398;28;20223;-86
2023/11/28 02:26:55;;;;;;;8.23;6.93;;;4.60;99.90;;;;;;5093202;28;20636;-86
2023/11/28 02:29:21;;;;;;;6.60;5.60;;;4.80;99.90;;;;;;5093401;28;20236;-86
2023/11/28 02:31:48;;;;;;;7.23;6.50;;;4.60;99.90;;;;;;5096618;28;20698;-84
2023/11/28 02:34:14;;;;;;;7.10;6.40;;;4.60;99.90;;;;;;5095725;28;20207;-86
2023/11/28 02:36:40;;;;;;;6.50;5.70;;;4.60;99.90;;;;;;5096889;28;20183;-85
2023/11/28 02:39:05;;;;;;;5.83;4.77;;;4.60;99.90;;;;;;5096721;28;20174;-86
2023/11/28 02:41:31;;;;;;;5.67;5.03;;;4.60;99.90;;;;;;5095803;28;20186;-85
2023/11/28 02:44:01;;;;;;;6.60;5.90;;;4.60;99.90;;;;;;5095387;28;20658;-85
2023/11/28 02:46:27;;;;;;;5.03;3.93;;;4.50;99.90;;;;;;5097092;28;20183;-85
2023/11/28 02:48:53;;;;;;;8.30;5.57;;;4.60;99.90;;;;;;5095962;28;20175;-85
2023/11/28 02:51:20;;;;;;;5.47;4.40;;;4.50;99.90;;;;;;5095869;28;20175;-86
2023/11/28 02:53:46;;;;;;;5.60;4.50;;;4.60;99.90;;;;;;5096252;28;20262;-85
2023/11/28 02:56:11;;;;;;;4.50;4.00;;;4.40;99.90;;;;;;5097588;28;20495;-83
2023/11/28 02:58:37;;;;;;;6.90;5.40;;;4.40;99.90;;;;;;5111085;28;20175;-86
2023/11/28 03:01:03;;;;;;;6.20;4.27;;;4.50;99.90;;;;;;5097727;28;20244;-85
2023/11/28 03:03:29;;;;;;;5.40;4.33;;;4.50;99.90;;;;;;5096027;28;20171;-85
2023/11/28 03:05:55;;;;;;;5.30;4.30;;;4.50;99.90;;;;;;5096983;28;20211;-86
2023/11/28 03:08:20;;;;;;;4.33;3.67;;;4.40;99.90;;;;;;5096688;28;20164;-85
2023/11/28 03:10:46;;;;;;;4.60;4.20;;;4.50;99.90;;;;;;5095992;28;20179;-86
2023/11/28 03:13:11;;;;;;;4.37;3.97;;;4.60;99.90;;;;;;5096298;28;20653;-86
2023/11/28 03:15:37;;;;;;;4.93;4.40;;;4.40;99.90;;;;;;5096120;28;20252;-86
2023/11/28 03:18:03;;;;;;;4.87;4.30;;;4.50;99.90;;;;;;5097277;28;20175;-85
2023/11/28 03:20:29;;;;;;;4.43;3.57;;;4.40;99.90;;;;;;5095407;28;20195;-85
2023/11/28 03:22:55;;;;;;;4.97;4.47;;;4.40;99.90;;;;;;5103595;28;20225;-85
2023/11/28 03:25:22;;;;;;;6.00;4.80;;;4.50;99.90;;;;;;5107417;28;20207;-84
2023/11/28 03:27:48;;;;;;;8.03;5.53;;;4.40;99.90;;;;;;5107978;28;20239;-85
2023/11/28 03:30:14;;;;;;;5.23;4.43;;;4.50;99.90;;;;;;5096813;28;20191;-87
2023/11/28 03:32:40;;;;;;;5.50;4.93;;;4.40;99.90;;;;;;5095230;28;20179;-87
2023/11/28 03:35:06;;;;;;;5.83;5.23;;;4.50;99.90;;;;;;5094945;28;20175;-87
2023/11/28 03:37:31;;;;;;;6.20;5.60;;;4.40;99.90;;;;;;5094705;28;20179;-86
2023/11/28 03:39:57;;;;;;;6.17;5.57;;;4.40;99.90;;;;;;5096094;28;20291;-85
2023/11/28 03:42:23;;;;;;;6.70;6.00;;;4.50;99.90;;;;;;5094555;28;20168;-86
2023/11/28 03:44:48;;;;;;;6.07;5.47;;;4.50;99.90;;;;;;5095823;28;20773;-85
2023/11/28 03:47:14;;;;;;;7.23;6.00;;;4.50;99.90;;;;;;5094811;28;20171;-86
2023/11/28 03:49:40;;;;;;;6.93;6.23;;;4.50;99.90;;;;;;5096900;28;20301;-85
2023/11/28 03:52:05;;;;;;;7.17;6.47;;;4.60;99.90;;;;;;5098113;28;20251;-82
2023/11/28 03:54:31;;;;;;;7.27;6.57;;;4.50;99.90;;;;;;5103432;28;20171;-86
2023/11/28 03:56:58;;;;;;;7.03;6.07;;;4.50;99.90;;;;;;5114979;28;20210;-84
2023/11/28 03:59:24;;;;;;;8.50;7.13;;;4.40;99.90;;;;;;5116327;28;20175;-84
2023/11/28 04:01:49;;;;;;;7.57;6.77;;;4.40;99.90;;;;;;5101694;28;20224;-83
2023/11/28 04:04:16;;;;;;;7.50;6.77;;;4.40;99.90;;;;;;5095005;28;20271;-85
2023/11/28 04:06:42;;;;;;;8.23;7.37;;;4.40;99.90;;;;;;5094110;28;20172;-86
2023/11/28 04:09:08;;;;;;;9.00;7.43;;;4.40;99.90;;;;;;5094323;28;20172;-86
2023/11/28 04:11:35;;;;;;;7.93;6.87;;;4.40;99.90;;;;;;5093802;28;20175;-84
2023/11/28 04:14:02;;;;;;;10.00;8.37;;;4.40;99.90;;;;;;5095233;28;20222;-85
2023/11/28 04:16:27;;;;;;;9.17;7.67;;;4.40;99.90;;;;;;5098028;28;20586;-85
2023/11/28 04:18:53;;;;;;;9.37;7.93;;;4.40;99.90;;;;;;5106786;28;20171;-84
2023/11/28 04:21:22;;;;;;;6.57;5.93;;;4.40;99.90;;;;;;5096493;28;20694;-86
2023/11/28 04:23:48;;;;;;;7.53;6.50;;;4.20;99.90;;;;;;5095041;28;20195;-85
2023/11/28 04:26:14;;;;;;;10.17;9.17;;;4.30;99.90;;;;;;5093447;28;20229;-85
2023/11/28 04:28:40;;;;;;;8.47;7.63;;;4.30;99.90;;;;;;5094017;28;20167;-86
2023/11/28 04:31:06;;;;;;;9.17;8.23;;;4.40;99.90;;;;;;5093842;28;20232;-87
2023/11/28 04:33:32;;;;;;;8.90;7.93;;;4.30;99.90;;;;;;5094578;28;20231;-86
2023/11/28 04:35:57;;;;;;;9.43;8.00;;;4.30;99.90;;;;;;5095286;28;20179;-85
2023/11/28 04:38:23;;;;;;;8.03;6.57;;;4.30;99.90;;;;;;5094191;28;20163;-86
2023/11/28 04:40:52;;;;;;;8.80;7.90;;;4.30;99.90;;;;;;5095035;28;20631;-84
2023/11/28 04:43:17;;;;;;;9.40;8.27;;;4.30;99.90;;;;;;5094333;28;20176;-86
2023/11/28 04:45:43;;;;;;;8.80;7.53;;;4.50;99.90;;;;;;5092765;28;20632;-84
2023/11/28 04:48:09;;;;;;;9.10;8.13;;;4.30;99.90;;;;;;5094908;28;20172;-86
2023/11/28 04:50:34;;;;;;;8.27;7.47;;;4.20;99.90;;;;;;5093893;28;20603;-87
2023/11/28 04:53:00;;;;;;;8.70;7.53;;;4.20;99.90;;;;;;5095041;28;20170;-86
2023/11/28 04:55:26;;;;;;;6.90;5.87;;;4.10;99.90;;;;;;5094067;28;20172;-85
2023/11/28 04:57:51;;;;;;;8.57;6.90;;;4.10;99.90;;;;;;5093415;28;20639;-86
2023/11/28 05:00:17;;;;;;;7.93;7.13;;;4.20;99.90;;;;;;5093178;28;20179;-86
2023/11/28 05:02:43;;;;;;;7.97;7.17;;;4.00;99.90;;;;;;5094114;28;20163;-86
2023/11/28 05:05:08;;;;;;;8.33;7.20;;;4.10;99.90;;;;;;5096242;28;20203;-84
2023/11/28 05:07:34;;;;;;;8.57;7.13;;;4.00;99.90;;;;;;5097699;28;20686;-86
2023/11/28 05:10:00;;;;;;;8.73;7.20;;;4.10;99.90;;;;;;5101940;28;20175;-86
2023/11/28 05:12:26;;;;;;;7.87;7.07;;;4.00;99.90;;;;;;5094953;28;20623;-87
2023/11/28 05:14:51;;;;;;;8.00;6.30;;;4.10;99.90;;;;;;5095647;28;20168;-86
2023/11/28 05:17:18;;;;;;;5.70;4.50;;;4.00;99.90;;;;;;5096710;28;20232;-85
2023/11/28 05:19:44;;;;;;;8.53;7.00;;;3.90;99.90;;;;;;5096668;28;20713;-85
2023/11/28 05:22:09;;;;;;;8.43;7.27;;;4.00;99.90;;;;;;5099369;28;20163;-86
2023/11/28 05:24:36;;;;;;;7.83;5.03;;;4.10;99.90;;;;;;5109740;28;20183;-84
2023/11/28 05:27:02;;;;;;;8.53;6.20;;;3.90;99.90;;;;;;5108304;28;20179;-87
2023/11/28 05:29:27;;;;;;;7.90;5.67;;;3.90;99.90;;;;;;5092962;28;20235;-86
2023/11/28 05:31:53;;;;;;;6.87;5.40;;;3.90;99.90;;;;;;5092024;28;20171;-83
2023/11/28 05:34:19;;;;;;;9.77;7.20;;;4.00;99.90;;;;;;5092859;28;20217;-83
2023/11/28 05:36:44;;;;;;;8.30;7.40;;;3.90;99.90;;;;;;5091591;28;20175;-83
2023/11/28 05:39:10;;;;;;;7.70;6.40;;;4.10;99.90;;;;;;5099488;28;20688;-84
2023/11/28 05:41:37;;;;;;;10.40;6.87;;;4.00;99.90;;;;;;5092065;28;20171;-84
2023/11/28 05:44:04;;;;;;;8.63;7.63;;;3.90;99.90;;;;;;5091841;28;20246;-85
2023/11/28 05:46:30;;;;;;;9.83;8.03;;;3.90;99.90;;;;;;5092139;28;20306;-83
2023/11/28 05:48:56;;;;;;;7.87;7.07;;;3.90;99.90;;;;;;5092845;28;20203;-83
2023/11/28 05:51:21;;;;;;;9.77;7.53;;;4.00;99.90;;;;;;5092849;28;20171;-84
2023/11/28 05:53:48;;;;;;;8.83;7.93;;;4.00;99.90;;;;;;5091897;28;20183;-84
2023/11/28 05:56:13;;;;;;;8.07;7.20;;;4.00;99.90;;;;;;5090603;28;20530;-86
2023/11/28 05:58:40;;;;;;;9.20;7.53;;;3.90;99.90;;;;;;5092197;28;20187;-86
2023/11/28 06:01:06;;;;;;;8.50;7.13;;;3.90;99.90;;;;;;5096183;28;20164;-83
2023/11/28 06:03:32;;;;;;;9.47;8.23;;;4.10;99.90;;;;;;5095419;28;20246;-83
2023/11/28 06:06:00;;;;;;;7.63;6.00;;;4.00;99.90;;;;;;5093852;28;20211;-85
2023/11/28 06:08:26;;;;;;;9.17;7.23;;;4.00;99.90;;;;;;5097686;28;20251;-86
2023/11/28 06:10:52;;;;;;;8.27;7.20;;;4.10;99.90;;;;;;5097249;28;20171;-86
2023/11/28 06:13:17;;;;;;;9.33;8.10;;;4.00;99.90;;;;;;5097148;28;20336;-84
2023/11/28 06:15:43;;;;;;;10.43;8.00;;;4.00;99.90;;;;;;5098041;28;20213;-85
2023/11/28 06:18:10;;;;;;;8.83;6.80;;;4.00;99.90;;;;;;5096728;28;20712;-83
2023/11/28 06:20:37;;;;;;;10.10;8.10;;;4.00;99.90;;;;;;5096831;28;20679;-86
2023/11/28 06:23:03;;;;;;;9.87;8.47;;;4.00;99.90;;;;;;5102171;28;20197;-84
2023/11/28 06:25:29;;;;;;;8.87;6.90;;;4.00;99.90;;;;;;5097873;28;20211;-84
2023/11/28 06:27:55;;;;;;;10.13;7.53;;;3.90;99.90;;;;;;5097996;28;20521;-82
2023/11/28 06:30:21;;;;;;;10.33;9.13;;;4.00;99.90;;;;;;5099670;28;20547;-87
2023/11/28 06:32:47;;;;;;;8.43;6.70;;;3.90;99.90;;;;;;5099676;28;20170;-87
2023/11/28 06:35:13;;;;;;;9.60;7.70;;;3.90;99.90;;;;;;5099504;28;20195;-87
2023/11/28 06:37:39;;;;;;;9.17;7.50;;;3.80;99.90;;;;;;5098318;28;20156;-87
2023/11/28 06:40:05;;;;;;;9.90;8.10;;;3.80;99.90;;;;;;5094121;28;20175;-88
2023/11/28 06:42:31;;;;;;;8.33;7.10;;;3.80;99.90;;;;;;5076636;28;20628;-85
2023/11/28 06:44:57;;;;;;;7.67;6.03;;;3.80;99.90;;;;;;5074081;28;20211;-85
2023/11/28 06:47:22;;;;;;;8.50;6.43;;;3.70;99.90;;;;;;5077190;28;20172;-87
2023/11/28 06:49:49;;;;;;;9.07;6.03;;;3.60;99.90;;;;;;5076211;28;20579;-87
2023/11/28 06:52:14;;;;;;;8.97;7.27;;;3.90;99.90;;;;;;5083868;28;20165;-88
2023/11/28 06:54:42;;;;;;;7.40;5.57;;;3.70;99.90;;;;;;5081691;28;20195;-87
2023/11/28 06:57:11;;;;;;;8.97;6.90;;;3.60;99.90;;;;;;5088820;28;20550;-88
2023/11/28 06:59:37;;;;;;;8.33;6.70;;;3.40;99.90;;;;;;5077787;28;20168;-86
2023/11/28 07:02:04;;;;;;;9.03;7.17;;;3.60;99.90;;;;;;5076593;28;20176;-86
2023/11/28 07:04:29;;;;;;;9.87;6.73;;;3.60;99.90;;;;;;5075865;28;20203;-87
2023/11/28 07:06:55;;;;;;;6.97;5.57;;;3.60;99.90;;;;;;5074554;28;20191;-85
2023/11/28 07:09:21;;;;;;;8.53;6.90;;;3.50;99.90;;;;;;5076068;28;20625;-86
2023/11/28 07:11:53;;;;;;;9.73;7.73;;;3.60;99.90;;;;;;5075704;28;20534;-89
2023/11/28 07:14:20;;;;;;;6.27;5.30;;;3.60;99.90;;;;;;5067569;28;20215;-87
2023/11/28 07:16:45;;;;;;;10.37;7.87;;;3.50;99.90;;;;;;5065376;28;20169;-87
2023/11/28 07:19:11;;;;;;;7.60;6.30;;;3.40;99.90;;;;;;5059421;28;20265;-89
2023/11/28 07:21:37;;;;;;;8.57;7.10;;;3.30;99.90;;;;;;5059929;28;20608;-88
2023/11/28 07:24:09;;;;;;;7.07;5.37;;;3.30;99.90;;;;;;5073251;28;20176;-93
2023/11/28 07:26:35;;;;;;;8.40;6.67;;;3.20;99.90;;;;;;5069636;28;20204;-84
2023/11/28 07:29:01;;;;;;;8.03;6.13;;;3.10;99.90;;;;;;5058467;28;20177;-89
2023/11/28 07:31:28;;;;;;;8.17;6.60;;;3.10;99.90;;;;;;5057775;28;20221;-88
2023/11/28 07:33:54;;;;;;;6.83;5.40;;;3.10;99.90;;;;;;5055410;28;20246;-90
2023/11/28 07:36:20;;;;;;;6.43;4.57;;;3.20;99.90;;;;;;5053883;28;20644;-90
2023/11/28 07:38:45;;;;;;;6.53;5.37;;;3.00;99.90;;;;;;5055285;28;20178;-88
2023/11/28 07:41:15;;;;;;;7.43;6.57;;;3.10;99.90;;;;;;5055763;28;20180;-89
2023/11/28 07:43:41;;;;;;;7.13;5.07;;;3.00;99.90;;;;;;5055052;28;20173;-86
2023/11/28 07:46:07;;;;;;;7.37;4.83;;;3.10;99.90;;;;;;5057950;28;20231;-89
2023/11/28 07:48:33;;;;;;;5.60;3.80;;;2.90;99.90;;;;;;5065091;28;20203;-87
2023/11/28 07:51:03;;;;;;;6.40;4.63;;;3.00;99.90;;;;;;5056603;28;20569;-88
2023/11/28 07:53:28;;;;;;;6.53;4.33;;;2.80;99.90;;;;;;5057714;28;20247;-88
2023/11/28 07:55:54;;;;;;;5.63;4.50;;;2.70;99.90;;;;;;5061929;28;20235;-86
2023/11/28 07:58:19;;;;;;;5.07;4.03;;;2.70;99.90;;;;;;5057419;28;20201;-87
2023/11/28 08:00:45;;;;;;;6.10;4.60;;;2.80;99.90;;;;;;5069103;28;20719;-88
2023/11/28 08:03:11;;;;;;;5.40;4.33;;;2.70;99.90;;;;;;5074020;28;20667;-85
2023/11/28 08:05:39;;;;;;;5.77;2.90;;;2.70;99.90;;;;;;5075019;28;20220;-87
2023/11/28 08:08:05;;;;;;;4.90;3.73;;;2.70;99.90;;;;;;5074341;28;20703;-85
2023/11/28 08:10:31;;;;;;;6.27;3.20;;;2.70;99.90;;;;;;5076220;28;20215;-86
2023/11/28 08:12:58;;;;;;;3.83;2.77;;;2.50;99.90;;;;;;5077015;28;20173;-88
2023/11/28 08:15:24;;;;;;;5.53;3.70;;;2.50;99.90;;;;;;5082761;28;20175;-86
2023/11/28 08:17:50;;;;;;;5.07;3.27;;;2.50;99.90;;;;;;5090453;28;20168;-84
2023/11/28 08:20:16;;;;;;;5.23;3.23;;;2.60;99.90;;;;;;5097667;28;20191;-86
2023/11/28 08:22:48;;;;;;;5.17;3.27;;;2.60;99.90;;;;;;5098625;28;20152;-87
2023/11/28 08:25:14;;;;;;;5.03;3.97;;;2.50;99.90;;;;;;5086274;28;20691;-87
2023/11/28 08:27:41;;;;;;;5.90;3.60;;;2.50;99.90;;;;;;5085317;28;20184;-87
2023/11/28 08:30:08;;;;;;;4.60;3.30;;;2.50;99.90;;;;;;5087774;28;20176;-88
2023/11/28 08:32:33;;;;;;;6.10;3.37;;;2.50;99.90;;;;;;5074929;28;20180;-87
2023/11/28 08:34:59;;;;;;;5.47;3.63;;;2.40;99.90;;;;;;5074082;28;20181;-89
2023/11/28 08:37:25;;;;;;;6.27;2.97;;;2.40;99.90;;;;;;5074259;28;20194;-87
2023/11/28 08:39:53;;;;;;;7.03;3.47;;;2.40;99.90;;;;;;5075051;28;20203;-88
2023/11/28 08:42:18;;;;;;;6.17;4.30;;;2.60;99.90;;;;;;5074216;28;20172;-86
2023/11/28 08:44:44;;;;;;;6.07;3.30;;;2.50;99.90;;;;;;5073661;28;20546;-87
2023/11/28 08:47:10;;;;;;;4.63;3.43;;;2.50;99.90;;;;;;5074798;28;20188;-88
2023/11/28 08:49:36;;;;;;;5.60;3.60;;;2.60;99.90;;;;;;5075627;28;20172;-86
2023/11/28 08:52:01;;;;;;;5.93;3.67;;;2.50;99.90;;;;;;5076720;28;20281;-87
2023/11/28 08:54:29;;;;;;;5.60;3.63;;;2.60;99.90;;;;;;5074039;28;20211;-86
2023/11/28 08:56:55;;;;;;;6.07;4.20;;;2.50;99.90;;;;;;5073968;28;20176;-85
2023/11/28 08:59:22;;;;;;;4.47;3.60;;;2.60;99.90;;;;;;5074169;28;20548;-85
2023/11/28 09:01:48;;;;;;;6.20;4.00;;;2.60;99.90;;;;;;5077513;28;20183;-87
2023/11/28 09:04:14;;;;;;;6.00;4.00;;;2.60;99.90;;;;;;5080771;28;20297;-86
2023/11/28 09:06:40;;;;;;;9.13;4.73;;;2.70;99.90;;;;;;5074174;28;20609;-86
2023/11/28 09:09:09;;;;;;;4.47;3.20;;;2.70;99.90;;;;;;5073703;28;20196;-87
2023/11/28 09:11:34;;;;;;;4.50;3.67;;;2.60;99.90;;;;;;5075317;28;20633;-87
2023/11/28 09:14:00;;;;;;;7.00;3.87;;;2.70;99.90;;;;;;5072605;28;20198;-86
2023/11/28 09:16:27;;;;;;;6.70;3.80;;;2.70;99.90;;;;;;5073257;28;20200;-88
2023/11/28 09:18:52;;;;;;;3.87;2.43;;;2.50;99.90;;;;;;5075480;28;20168;-86
2023/11/28 09:21:18;;;;;;;5.47;3.50;;;2.40;99.90;;;;;;5075309;28;20600;-88
2023/11/28 09:23:44;;;;;;;5.67;3.53;;;2.50;99.90;;;;;;5074699;28;20175;-86
2023/11/28 09:26:09;;;;;;;5.17;3.20;;;2.60;99.90;;;;;;5089853;28;20216;-87
2023/11/28 09:28:37;;;;;;;5.70;4.90;;;2.50;99.90;;;;;;5081124;28;20534;-87
2023/11/28 09:31:04;;;;;;;7.43;3.70;;;2.60;99.90;;;;;;5074802;28;20228;-86
2023/11/28 09:33:31;;;;;;;5.47;3.23;;;2.70;99.90;;;;;;5080974;28;20172;-87
2023/11/28 09:35:56;;;;;;;4.10;3.30;;;2.70;99.90;;;;;;5075671;28;20168;-87
2023/11/28 09:38:22;;;;;;;5.90;3.50;;;2.70;99.90;;;;;;5076040;28;20178;-86
2023/11/28 09:40:48;;;;;;;3.47;2.47;;;2.70;99.90;;;;;;5088479;28;20179;-87
2023/11/28 09:43:25;;;;;;;6.03;3.87;;;2.70;99.90;;;;;;5074839;28;20176;-86
2023/11/28 09:45:55;;;;;;;6.27;3.50;;;2.70;99.90;;;;;;5075702;28;20188;-87
2023/11/28 09:48:21;;;;;;;5.07;3.47;;;2.90;99.90;;;;;;5074603;28;20642;-86
2023/11/28 09:50:51;;;;;;;6.57;3.40;;;3.00;99.90;;;;;;5076288;28;20168;-86
2023/11/28 09:53:21;;;;;;;4.57;3.50;;;3.10;99.90;;;;;;5075953;28;20255;-87
2023/11/28 09:55:46;;;;;;;5.20;3.47;;;3.20;99.90;;;;;;5075711;28;20180;-88
2023/11/28 09:58:13;;;;;;;4.23;3.20;;;3.20;99.90;;;;;;5076915;28;20180;-86
2023/11/28 10:00:41;;;;;;;4.27;2.93;;;3.20;99.90;;;;;;5078438;28;20180;-88
2023/11/28 10:03:06;;;;;;;5.83;3.40;;;3.30;99.90;;;;;;5075174;28;20217;-85
2023/11/28 10:05:33;;;;;;;5.97;3.43;;;3.50;99.90;;;;;;5075160;28;20216;-87
2023/11/28 10:08:01;;;;;;;4.47;3.13;;;3.70;99.90;;;;;;5075449;28;20207;-87
2023/11/28 10:10:27;;;;;;;5.80;3.57;;;3.70;99.90;;;;;;5081240;28;20180;-87
2023/11/28 10:12:54;;;;;;;4.37;3.07;;;3.70;99.90;;;;;;5077240;28;20160;-86
2023/11/28 10:15:21;;;;;;;5.80;3.10;;;3.70;99.90;;;;;;5074525;28;20179;-88
2023/11/28 10:17:47;;;;;;;4.73;3.30;;;3.70;99.90;;;;;;5075241;28;20539;-86
2023/11/28 10:20:13;;;;;;;4.97;3.20;;;3.80;99.90;;;;;;5075719;28;20198;-87
2023/11/28 10:22:49;;;;;;;4.43;2.77;;;3.80;99.90;;;;;;5080637;28;20164;-88
2023/11/28 10:25:15;;;;;;;4.20;3.30;;;3.80;99.90;;;;;;5084227;28;20282;-87
2023/11/28 10:27:46;;;;;;;3.93;2.53;;;3.70;99.90;;;;;;5076408;28;20184;-88
2023/11/28 10:30:15;;;;;;;5.30;3.23;;;3.60;99.90;;;;;;5075765;28;20168;-87
2023/11/28 10:32:44;;;;;;;3.87;3.00;;;3.70;99.90;;;;;;5073492;28;20176;-87
2023/11/28 10:35:10;;;;;;;4.70;3.03;;;3.70;99.90;;;;;;5074661;28;20168;-88
2023/11/28 10:37:36;;;;;;;7.03;3.30;;;3.90;99.90;;;;;;5073683;28;20221;-87
2023/11/28 10:40:07;;;;;;;3.70;3.03;;;3.90;99.90;;;;;;5074896;28;20168;-86
2023/11/28 10:42:33;;;;;;;3.97;2.83;;;3.90;99.90;;;;;;5074864;28;20182;-86
2023/11/28 10:45:00;;;;;;;4.13;3.27;;;4.10;99.90;;;;;;5076479;28;20189;-87
2023/11/28 10:47:29;;;;;;;3.93;3.20;;;4.10;99.90;;;;;;5077271;28;20181;-85
2023/11/28 10:49:56;;;;;;;4.60;3.33;;;4.40;99.90;;;;;;5074492;28;20672;-84
2023/11/28 10:52:27;;;;;;;4.57;2.77;;;4.50;99.90;;;;;;5075264;28;20196;-86
2023/11/28 10:54:57;;;;;;;4.37;2.93;;;4.30;99.90;;;;;;5076387;28;20181;-83
2023/11/28 10:57:30;;;;;;;4.97;2.80;;;4.40;99.90;;;;;;5076199;28;20176;-85
2023/11/28 11:00:08;;;;;;;5.47;2.70;;;4.60;99.90;;;;;;5092246;28;20203;-86
2023/11/28 11:02:35;;;;;;;3.70;3.10;;;4.50;99.90;;;;;;5077967;28;20528;-84
2023/11/28 11:05:06;;;;;;;3.37;2.60;;;4.70;99.90;;;;;;5074770;28;20624;-83
2023/11/28 11:07:34;;;;;;;5.60;3.00;;;4.50;99.90;;;;;;5076033;28;20633;-85
2023/11/28 11:10:03;;;;;;;3.27;2.73;;;4.40;99.90;;;;;;5076331;28;20199;-84
2023/11/28 11:12:31;;;;;;;3.27;2.50;;;4.30;99.90;;;;;;5077421;28;20169;-84
2023/11/28 11:15:03;;;;;;;3.80;2.80;;;4.20;99.90;;;;;;5081823;28;20203;-87
2023/11/28 11:17:48;;;;;;;3.87;2.77;;;4.20;99.90;;;;;;5079597;28;20235;-85
2023/11/28 11:20:16;;;;;;;4.07;2.87;;;4.30;99.90;;;;;;5083998;28;20717;-84
2023/11/28 11:22:48;;;;;;;5.20;3.20;;;4.60;99.90;;;;;;5077321;28;20259;-85
2023/11/28 11:25:14;;;;;;;5.43;3.20;;;4.60;99.90;;;;;;5076378;28;20218;-84
2023/11/28 11:27:39;;;;;;;4.73;3.00;;;4.70;99.90;;;;;;5078223;28;20255;-84
2023/11/28 11:30:09;;;;;;;6.13;2.90;;;4.80;99.90;;;;;;5077232;28;20305;-86
2023/11/28 11:32:35;;;;;;;5.03;3.50;;;4.80;99.90;;;;;;5061287;28;20183;-86
2023/11/28 11:35:04;;;;;;;7.60;3.07;;;4.90;99.90;;;;;;5078415;28;20248;-86
2023/11/28 11:37:32;;;;;;;4.93;2.70;;;5.10;99.90;;;;;;5076321;28;20195;-85
2023/11/28 11:39:59;;;;;;;4.50;2.80;;;5.10;99.90;;;;;;5075325;28;20183;-86
2023/11/28 11:42:26;;;;;;;3.37;2.67;;;4.90;99.90;;;;;;5076227;28;20168;-87
2023/11/28 11:45:00;;;;;;;4.57;2.70;;;5.00;99.90;;;;;;5075905;28;20211;-83
2023/11/28 11:47:27;;;;;;;5.53;3.07;;;4.80;99.90;;;;;;5075165;28;20176;-85
2023/11/28 11:49:55;;;;;;;3.60;2.87;;;4.90;99.90;;;;;;5076861;28;20239;-85
2023/11/28 11:52:24;;;;;;;4.13;2.60;;;5.00;99.90;;;;;;5075464;28;20176;-86
2023/11/28 11:54:51;;;;;;;3.97;2.63;;;5.00;99.90;;;;;;5075072;28;20173;-86
2023/11/28 11:57:19;;;;;;;4.90;2.50;;;5.10;99.90;;;;;;5075575;28;20192;-83
2023/11/28 11:59:46;;;;;;;3.60;2.70;;;5.00;99.90;;;;;;5076421;28;20168;-84
2023/11/28 12:02:12;;;;;;;3.90;2.83;;;5.00;99.90;;;;;;5075534;28;20187;-83
2023/11/28 12:04:42;;;;;;;5.17;3.00;;;5.00;99.90;;;;;;5077575;28;20591;-85
2023/11/28 12:07:13;;;;;;;4.13;3.13;;;5.20;99.90;;;;;;5075667;28;20168;-85
2023/11/28 12:09:42;;;;;;;6.53;2.80;;;5.50;99.90;;;;;;5076339;28;20177;-85
2023/11/28 12:12:13;;;;;;;4.77;2.77;;;5.50;99.90;;;;;;5075558;28;20176;-83
2023/11/28 12:14:39;;;;;;;3.77;2.67;;;5.30;99.90;;;;;;5082456;28;20267;-82
2023/11/28 12:17:07;;;;;;;3.73;2.90;;;5.60;99.90;;;;;;5084471;28;20698;-86
2023/11/28 12:19:33;;;;;;;4.17;2.67;;;5.60;99.90;;;;;;5078350;28;20207;-84
2023/11/28 12:22:09;;;;;;;3.53;2.70;;;5.50;99.90;;;;;;5074586;28;20172;-84
2023/11/28 12:24:34;;;;;;;3.73;2.93;;;5.60;99.90;;;;;;5074159;28;20173;-86
2023/11/28 12:27:05;;;;;;;4.80;2.70;;;5.50;99.90;;;;;;5074546;28;20279;-85
2023/11/28 12:29:32;;;;;;;4.87;2.83;;;5.80;99.90;;;;;;5075034;28;20259;-85
2023/11/28 12:31:58;;;;;;;3.33;2.50;;;5.90;99.90;;;;;;5074928;28;20184;-85
2023/11/28 12:34:25;;;;;;;4.77;2.73;;;6.00;99.90;;;;;;5074049;28;20176;-86
2023/11/28 12:36:54;;;;;;;4.57;2.97;;;5.80;99.90;;;;;;5074616;28;20172;-85
2023/11/28 12:39:25;;;;;;;5.20;2.77;;;6.00;99.90;;;;;;5074592;28;20176;-86
2023/11/28 12:41:52;;;;;;;4.17;2.67;;;6.10;99.90;;;;;;5075031;28;20168;-85
2023/11/28 12:44:24;;;;;;;3.97;2.90;;;6.30;99.90;;;;;;5079607;28;20180;-84
2023/11/28 12:46:52;;;;;;;3.53;2.97;;;6.10;99.90;;;;;;5075311;28;20180;-85
2023/11/28 12:49:18;;;;;;;3.30;2.47;;;6.10;99.90;;;;;;5076472;28;20318;-84
2023/11/28 12:51:45;;;;;;;5.37;2.97;;;6.40;99.90;;;;;;5076044;28;20175;-84